createdAt,value
2019-02-12T00:01:09.169Z,96.82
2019-02-12T00:03:37.414Z,96.74
2019-02-12T00:06:05.660Z,97.03
2019-02-12T00:08:33.918Z,96.96
2019-02-12T00:11:02.163Z,96.74
2019-02-12T00:13:49.757Z,96.53
2019-02-12T00:16:18.027Z,96.26
2019-02-12T00:18:46.269Z,95.88
2019-02-12T00:21:14.511Z,95.68
2019-02-12T00:23:43.206Z,95.42
2019-02-12T00:26:11.470Z,95.32
2019-02-12T00:28:39.709Z,95.22
2019-02-12T00:31:07.949Z,95.21
2019-02-12T00:33:36.206Z,95.36
2019-02-12T00:36:04.455Z,95.66
2019-02-12T00:38:32.696Z,95.73
2019-02-12T00:41:00.938Z,95.78
2019-02-12T00:43:29.190Z,95.91
2019-02-12T00:45:57.427Z,95.96
2019-02-12T00:48:25.673Z,95.96
2019-02-12T00:50:53.927Z,95.84
2019-02-12T00:53:22.497Z,95.69
2019-02-12T00:55:50.749Z,95.71
2019-02-12T00:58:19.008Z,95.53
2019-02-12T01:00:47.253Z,95.46
2019-02-12T01:03:15.499Z,95.50
2019-02-12T01:05:43.741Z,95.21
2019-02-12T01:08:11.990Z,95.02
2019-02-12T01:10:40.245Z,94.97
2019-02-12T01:13:08.509Z,94.84
2019-02-12T01:15:36.758Z,94.69
2019-02-12T01:18:04.998Z,94.56
2019-02-12T01:20:33.254Z,94.53
2019-02-12T01:23:01.501Z,94.61
2019-02-12T01:25:29.738Z,94.69
2019-02-12T01:27:58.003Z,94.96
2019-02-12T01:30:26.249Z,94.95
2019-02-12T01:32:54.514Z,95.02
2019-02-12T01:35:22.749Z,94.69
2019-02-12T01:37:50.993Z,94.83
2019-02-12T01:40:19.241Z,94.65
2019-02-12T01:42:47.489Z,94.25
2019-02-12T01:45:15.738Z,94.14
2019-02-12T01:47:43.988Z,94.02
2019-02-12T01:50:52.277Z,93.64
2019-02-12T01:53:20.531Z,93.71
2019-02-12T01:55:48.770Z,93.34
2019-02-12T01:58:17.039Z,92.86
2019-02-12T02:00:45.278Z,92.62
2019-02-12T02:03:13.604Z,92.31
2019-02-12T02:05:41.783Z,92.11
2019-02-12T02:08:10.075Z,91.89
2019-02-12T02:10:39.132Z,91.34
2019-02-12T02:13:08.295Z,91.07
2019-02-12T02:15:36.722Z,90.71
2019-02-12T02:18:04.972Z,90.49
2019-02-12T02:20:33.224Z,90.43
2019-02-12T02:23:01.483Z,90.42
2019-02-12T02:25:29.729Z,89.83
2019-02-12T02:27:57.977Z,89.19
2019-02-12T02:30:26.233Z,88.94
2019-02-12T02:32:54.489Z,88.64
2019-02-12T02:35:22.728Z,88.60
2019-02-12T02:37:50.968Z,88.30
2019-02-12T02:40:19.240Z,87.78
2019-02-12T02:42:47.481Z,88.07
2019-02-12T02:45:15.723Z,87.85
2019-02-12T02:47:44.003Z,87.72
2019-02-12T02:50:12.217Z,87.50
2019-02-12T02:52:40.455Z,87.44
2019-02-12T02:55:42.656Z,87.19
2019-02-12T02:58:10.901Z,87.06
2019-02-12T03:00:39.137Z,87.06
2019-02-12T03:03:07.388Z,87.18
2019-02-12T03:05:35.635Z,87.06
2019-02-12T03:08:03.890Z,87.62
2019-02-12T03:10:52.319Z,88.26
2019-02-12T03:13:21.430Z,88.26
2019-02-12T03:15:49.684Z,88.69
2019-02-12T03:18:17.933Z,89.36
2019-02-12T03:20:46.194Z,89.75
2019-02-12T03:23:14.430Z,90.04
2019-02-12T03:25:42.686Z,90.20
2019-02-12T03:28:10.936Z,90.40
2019-02-12T03:30:39.215Z,89.97
2019-02-12T03:33:07.452Z,90.09
2019-02-12T03:35:35.690Z,90.27
2019-02-12T03:38:03.947Z,90.24
2019-02-12T03:40:32.192Z,90.28
2019-02-12T03:43:00.432Z,89.86
2019-02-12T03:45:28.674Z,89.77
2019-02-12T03:47:56.935Z,89.78
2019-02-12T03:50:25.180Z,89.85
2019-02-12T03:52:53.418Z,89.72
2019-02-12T03:55:21.675Z,89.73
2019-02-12T03:58:29.944Z,89.60
2019-02-12T04:00:58.201Z,89.46
2019-02-12T04:06:28.004Z,89.59
2019-02-12T04:08:56.250Z,89.77
2019-02-12T04:11:24.508Z,89.86
2019-02-12T04:13:52.745Z,89.84
2019-02-12T04:16:21.011Z,89.85
2019-02-12T04:18:49.256Z,89.99
2019-02-12T04:21:17.504Z,90.21
2019-02-12T04:23:45.750Z,90.05
2019-02-12T04:26:13.985Z,89.88
2019-02-12T04:28:42.252Z,89.80
2019-02-12T04:31:10.487Z,89.96
2019-02-12T04:33:39.306Z,90.19
2019-02-12T04:36:07.549Z,89.91
2019-02-12T04:38:35.791Z,89.91
2019-02-12T04:41:04.046Z,90.15
2019-02-12T04:43:32.298Z,90.49
2019-02-12T04:46:00.554Z,90.76
2019-02-12T04:48:28.807Z,91.31
2019-02-12T04:50:57.048Z,91.67
2019-02-12T04:53:25.304Z,91.86
2019-02-12T04:55:53.554Z,92.04
2019-02-12T04:58:21.788Z,91.95
2019-02-12T05:00:50.047Z,92.12
2019-02-12T05:03:18.296Z,92.31
2019-02-12T05:05:46.534Z,92.65
2019-02-12T05:08:14.781Z,93.07
2019-02-12T05:11:16.598Z,93.49
2019-02-12T05:13:44.912Z,93.86
2019-02-12T05:16:13.157Z,93.92
2019-02-12T05:18:41.425Z,93.77
2019-02-12T05:21:09.669Z,93.74
2019-02-12T05:23:37.917Z,93.49
2019-02-12T05:26:06.163Z,93.48
2019-02-12T05:28:34.410Z,93.44
2019-02-12T05:31:02.676Z,93.30
2019-02-12T05:33:30.930Z,93.09
2019-02-12T05:35:59.177Z,92.98
2019-02-12T05:38:27.414Z,93.08
2019-02-12T05:40:55.673Z,93.11
2019-02-12T05:43:23.906Z,93.16
2019-02-12T05:45:52.171Z,92.91
2019-02-12T05:48:20.415Z,91.81
2019-02-12T05:50:48.660Z,91.02
2019-02-12T05:53:16.913Z,90.91
2019-02-12T05:55:45.160Z,90.94
2019-02-12T05:58:13.404Z,90.91
2019-02-12T06:00:41.647Z,91.18
2019-02-12T06:03:09.906Z,91.23
2019-02-12T06:05:38.161Z,91.32
2019-02-12T06:08:06.426Z,91.51
2019-02-12T06:10:34.671Z,91.87
2019-02-12T06:13:02.939Z,92.06
2019-02-12T06:15:31.175Z,92.37
2019-02-12T06:17:59.445Z,92.45
2019-02-12T06:20:27.697Z,92.35
2019-02-12T06:23:03.394Z,92.48
2019-02-12T06:25:26.045Z,92.75
2019-02-12T06:27:54.239Z,92.42
2019-02-12T06:30:22.499Z,92.50
2019-02-12T06:32:50.767Z,92.73
2019-02-12T06:35:18.996Z,92.98
2019-02-12T06:37:47.245Z,93.39
2019-02-12T06:40:15.485Z,93.55
2019-02-12T06:42:43.732Z,93.75
2019-02-12T06:45:52.030Z,94.14
2019-02-12T06:48:20.277Z,94.21
2019-02-12T06:50:48.524Z,94.24
2019-02-12T06:53:16.774Z,94.17
2019-02-12T06:55:45.033Z,94.11
2019-02-12T06:58:13.269Z,93.66
2019-02-12T07:00:41.518Z,93.37
2019-02-12T07:03:43.574Z,93.49
2019-02-12T07:06:46.517Z,93.58
2019-02-12T07:09:48.821Z,93.38
2019-02-12T07:12:55.796Z,93.37
2019-02-12T07:16:04.091Z,93.07
2019-02-12T07:19:11.042Z,92.64
2019-02-12T07:22:19.328Z,92.02
2019-02-12T07:25:21.194Z,91.39
2019-02-12T07:28:28.359Z,90.97
2019-02-12T07:31:37.771Z,90.81
2019-02-12T07:34:39.326Z,91.01
2019-02-12T07:37:41.096Z,91.37
2019-02-12T07:40:43.532Z,91.59
2019-02-12T07:43:50.849Z,91.38
2019-02-12T07:46:58.245Z,91.22
2019-02-12T07:49:59.730Z,91.56
2019-02-12T07:53:08.479Z,91.78
2019-02-12T07:55:51.827Z,91.93
2019-02-12T07:59:01.170Z,92.17
2019-02-12T08:02:12.485Z,92.24
2019-02-12T08:05:19.446Z,91.75
2019-02-12T08:08:18.804Z,91.70
2019-02-12T08:11:20.388Z,91.30
2019-02-12T08:14:27.380Z,91.22
2019-02-12T08:17:29.516Z,90.95
2019-02-12T08:20:31.582Z,91.10
2019-02-12T08:23:41.211Z,91.37
2019-02-12T08:26:49.329Z,90.77
2019-02-12T08:29:56.297Z,91.13
2019-02-12T08:33:03.397Z,90.70
2019-02-12T08:36:10.439Z,90.35
2019-02-12T08:39:18.813Z,90.24
2019-02-12T08:42:27.985Z,89.65
2019-02-12T08:45:34.990Z,89.30
2019-02-12T08:48:43.302Z,88.87
2019-02-12T08:51:45.156Z,88.26
2019-02-12T08:54:52.219Z,87.28
2019-02-12T08:57:59.288Z,87.00
2019-02-12T09:01:06.377Z,86.18
2019-02-12T09:04:13.432Z,84.96
2019-02-12T09:07:20.418Z,84.24
2019-02-12T09:10:27.404Z,82.50
2019-02-12T09:13:29.289Z,82.14
2019-02-12T09:19:36.053Z,81.19
2019-02-12T09:22:43.037Z,79.71
2019-02-12T09:25:51.392Z,79.50
2019-02-12T09:28:53.339Z,79.37
2019-02-12T09:31:56.129Z,79.47
2019-02-12T09:34:58.291Z,79.05
2019-02-12T09:38:05.265Z,78.72
2019-02-12T09:41:13.620Z,77.68
2019-02-12T09:44:03.188Z,77.95
2019-02-12T09:47:10.203Z,77.81
2019-02-12T09:50:11.892Z,78.35
2019-02-12T09:53:14.261Z,78.04
2019-02-12T09:56:21.277Z,78.36
2019-02-12T09:59:28.252Z,78.85
2019-02-12T10:02:30.215Z,78.57
2019-02-12T10:05:32.307Z,78.35
2019-02-12T10:08:34.627Z,78.03
2019-02-12T10:11:36.154Z,78.01
2019-02-12T10:14:43.114Z,77.89
2019-02-12T10:17:51.412Z,77.87
2019-02-12T10:20:53.773Z,77.14
2019-02-12T10:23:55.348Z,76.19
2019-02-12T10:26:57.555Z,75.34
2019-02-12T10:30:04.569Z,76.02
2019-02-12T10:32:31.833Z,74.33
2019-02-12T10:35:00.167Z,74.12
2019-02-12T10:40:36.557Z,74.92
2019-02-12T10:43:04.804Z,75.95
2019-02-12T10:45:33.074Z,77.35
2019-02-12T10:48:20.954Z,78.25
2019-02-12T10:50:49.255Z,78.53
2019-02-12T10:53:36.866Z,78.27
2019-02-12T10:56:38.541Z,78.40
2019-02-12T10:59:07.161Z,78.72
2019-02-12T11:01:35.424Z,79.63
2019-02-12T11:04:03.697Z,79.69
2019-02-12T11:09:22.047Z,79.97
2019-02-12T11:11:50.174Z,80.65
2019-02-12T11:14:18.439Z,81.20
2019-02-12T11:16:46.788Z,80.97
2019-02-12T11:19:15.007Z,81.10
2019-02-12T11:21:43.266Z,80.98
2019-02-12T11:24:11.518Z,80.79
2019-02-12T11:26:39.764Z,81.24
2019-02-12T11:29:08.006Z,81.50
2019-02-12T11:31:36.271Z,81.63
2019-02-12T11:34:04.545Z,81.53
2019-02-12T11:36:32.776Z,79.39
2019-02-12T11:39:01.028Z,78.35
2019-02-12T11:41:29.299Z,78.14
2019-02-12T11:43:57.555Z,79.07
2019-02-12T11:46:26.229Z,78.99
2019-02-12T11:48:54.496Z,78.95
2019-02-12T11:51:22.746Z,78.34
2019-02-12T11:53:50.995Z,76.53
2019-02-12T11:56:19.253Z,77.25
2019-02-12T11:58:47.484Z,76.78
2019-02-12T12:03:54.685Z,76.56
2019-02-12T12:06:22.944Z,77.35
2019-02-12T12:08:51.190Z,76.15
2019-02-12T12:11:19.457Z,76.20
2019-02-12T12:13:47.721Z,77.05
2019-02-12T12:16:15.991Z,76.06
2019-02-12T12:19:24.285Z,75.67
2019-02-12T12:21:52.557Z,76.49
2019-02-12T12:24:20.796Z,75.83
2019-02-12T12:26:49.051Z,75.47
2019-02-12T12:29:17.348Z,75.25
2019-02-12T12:31:45.600Z,74.35
2019-02-12T12:34:13.860Z,71.71
2019-02-12T12:36:42.116Z,69.34
2019-02-12T12:39:10.371Z,69.60
2019-02-12T12:41:38.624Z,68.96
2019-02-12T12:44:06.896Z,69.10
2019-02-12T12:46:35.162Z,68.93
2019-02-12T12:49:03.414Z,69.40
2019-02-12T12:51:31.683Z,69.20
2019-02-12T12:53:59.934Z,69.81
2019-02-12T12:56:28.186Z,68.04
2019-02-12T12:58:56.463Z,68.68
2019-02-12T13:01:25.313Z,69.12
2019-02-12T13:03:53.589Z,68.53
2019-02-12T13:06:21.832Z,68.67
2019-02-12T13:08:50.074Z,68.86
2019-02-12T13:11:18.331Z,69.05
2019-02-12T13:13:47.918Z,69.68
2019-02-12T13:16:16.567Z,69.70
2019-02-12T13:18:44.823Z,69.26
2019-02-12T13:21:13.066Z,70.85
2019-02-12T13:23:42.002Z,71.09
2019-02-12T13:26:10.238Z,71.82
2019-02-12T13:28:38.492Z,72.21
2019-02-12T13:31:06.741Z,72.55
2019-02-12T13:33:35.011Z,72.84
2019-02-12T13:36:03.255Z,73.04
2019-02-12T13:38:31.511Z,73.43
2019-02-12T13:40:59.757Z,73.68
2019-02-12T13:43:28.040Z,74.39
2019-02-12T13:45:56.309Z,75.07
2019-02-12T13:48:24.582Z,75.26
2019-02-12T13:50:52.837Z,75.36
2019-02-12T13:53:21.073Z,75.98
2019-02-12T13:55:49.328Z,75.69
2019-02-12T13:58:17.583Z,75.61
2019-02-12T14:00:45.862Z,75.57
2019-02-12T14:03:22.085Z,76.45
2019-02-12T14:05:44.112Z,75.51
2019-02-12T14:08:12.343Z,75.50
2019-02-12T14:10:40.594Z,75.84
2019-02-12T14:13:08.840Z,74.00
2019-02-12T14:15:37.090Z,73.98
2019-02-12T14:18:05.366Z,71.58
2019-02-12T14:20:33.608Z,70.67
2019-02-12T14:23:01.914Z,69.84
2019-02-12T14:25:30.185Z,69.12
2019-02-12T14:27:58.438Z,68.44
2019-02-12T14:30:26.725Z,68.04
2019-02-12T14:32:54.951Z,67.91
2019-02-12T14:35:23.231Z,67.91
2019-02-12T14:37:51.471Z,67.88
2019-02-12T14:40:19.717Z,68.17
2019-02-12T14:42:47.967Z,68.74
2019-02-12T14:45:49.996Z,68.65
2019-02-12T14:48:18.269Z,69.17
2019-02-12T14:50:46.515Z,69.41
2019-02-12T14:53:14.752Z,69.81
2019-02-12T14:55:43.033Z,70.20
2019-02-12T14:58:11.295Z,70.12
2019-02-12T15:00:39.624Z,70.44
2019-02-12T15:03:07.868Z,70.86
2019-02-12T15:05:36.136Z,70.83
2019-02-12T15:08:04.410Z,70.55
2019-02-12T15:10:32.692Z,70.86
2019-02-12T15:13:00.950Z,71.04
2019-02-12T15:15:29.210Z,71.79
2019-02-12T15:17:57.458Z,72.17
2019-02-12T15:20:25.701Z,72.30
2019-02-12T15:22:53.966Z,72.87
2019-02-12T15:25:22.281Z,73.56
2019-02-12T15:27:50.539Z,75.03
2019-02-12T15:30:52.472Z,75.69
2019-02-12T15:33:20.718Z,76.01
2019-02-12T15:35:48.979Z,76.92
2019-02-12T15:38:17.214Z,77.10
2019-02-12T15:40:45.462Z,77.34
2019-02-12T15:43:13.713Z,77.37
2019-02-12T15:45:41.972Z,77.87
2019-02-12T15:48:10.209Z,77.19
2019-02-12T15:50:38.459Z,77.34
2019-02-12T15:53:06.714Z,77.34
2019-02-12T15:55:42.086Z,78.20
2019-02-12T15:58:05.889Z,78.36
2019-02-12T16:03:16.295Z,78.03
2019-02-12T16:05:44.915Z,78.35
2019-02-12T16:08:13.166Z,78.07
2019-02-12T16:10:41.948Z,79.25
2019-02-12T16:13:12.049Z,79.65
2019-02-12T16:15:43.002Z,80.23
2019-02-12T16:18:11.348Z,80.78
2019-02-12T16:20:39.600Z,81.37
2019-02-12T16:23:07.852Z,81.35
2019-02-12T16:25:36.094Z,81.98
2019-02-12T16:28:04.354Z,82.23
2019-02-12T16:30:32.611Z,82.71
2019-02-12T16:33:00.875Z,82.28
2019-02-12T16:35:29.146Z,82.77
2019-02-12T16:37:57.403Z,83.10
2019-02-12T16:40:25.688Z,83.79
2019-02-12T16:42:53.941Z,83.88
2019-02-12T16:46:02.290Z,84.16
2019-02-12T16:48:30.547Z,84.00
2019-02-12T16:50:58.784Z,84.08
2019-02-12T16:53:27.881Z,84.46
2019-02-12T16:55:57.025Z,84.55
2019-02-12T16:58:25.279Z,84.70
2019-02-12T17:00:53.524Z,84.91
2019-02-12T17:03:21.792Z,85.00
2019-02-12T17:05:50.035Z,84.90
2019-02-12T17:08:18.280Z,85.04
2019-02-12T17:10:46.540Z,85.12
2019-02-12T17:13:14.777Z,85.52
2019-02-12T17:15:43.032Z,85.60
2019-02-12T17:18:11.276Z,85.75
2019-02-12T17:20:39.537Z,85.04
2019-02-12T17:23:07.780Z,84.85
2019-02-12T17:25:36.058Z,84.87
2019-02-12T17:28:04.301Z,84.74
2019-02-12T17:30:32.561Z,84.59
2019-02-12T17:33:00.799Z,84.93
2019-02-12T17:35:29.067Z,84.88
2019-02-12T17:37:57.313Z,84.88
2019-02-12T17:40:25.561Z,84.87
2019-02-12T17:42:53.819Z,85.08
2019-02-12T17:45:22.059Z,85.31
2019-02-12T17:47:50.308Z,85.53
2019-02-12T17:50:18.560Z,85.68
2019-02-12T17:55:25.771Z,85.57
2019-02-12T17:57:54.023Z,85.56
2019-02-12T18:00:41.380Z,86.30
2019-02-12T18:03:09.632Z,86.40
2019-02-12T18:05:37.906Z,86.54
2019-02-12T18:08:06.175Z,86.76
2019-02-12T18:10:34.421Z,87.12
2019-02-12T18:13:02.694Z,87.16
2019-02-12T18:15:30.934Z,87.30
2019-02-12T18:18:20.537Z,87.36
2019-02-12T18:20:50.510Z,87.18
2019-02-12T18:23:18.797Z,87.38
2019-02-12T18:25:47.037Z,87.58
2019-02-12T18:28:15.290Z,87.87
2019-02-12T18:30:43.575Z,88.15
2019-02-12T18:36:39.397Z,89.10
2019-02-12T18:39:07.641Z,89.10
2019-02-12T18:41:35.891Z,89.16
2019-02-12T18:44:04.149Z,89.31
2019-02-12T18:46:33.245Z,89.60
2019-02-12T18:49:01.505Z,89.94
2019-02-12T18:51:29.747Z,90.52
2019-02-12T18:53:58.017Z,90.84
2019-02-12T18:56:26.270Z,91.08
2019-02-12T18:58:54.533Z,91.48
2019-02-12T19:01:22.811Z,91.68
2019-02-12T19:03:51.082Z,91.88
2019-02-12T19:06:19.336Z,92.31
2019-02-12T19:08:47.586Z,92.63
2019-02-12T19:11:15.833Z,93.09
2019-02-12T19:13:44.093Z,93.68
2019-02-12T19:16:12.353Z,93.90
2019-02-12T19:18:40.612Z,94.25
2019-02-12T19:21:09.663Z,94.33
2019-02-12T19:23:58.220Z,94.43
2019-02-12T19:26:49.949Z,94.55
2019-02-12T19:29:16.586Z,94.51
2019-02-12T19:32:04.235Z,94.47
2019-02-12T19:34:32.837Z,94.52
2019-02-12T19:37:35.153Z,94.49
2019-02-12T19:40:37.121Z,94.60
2019-02-12T19:43:18.894Z,94.94
2019-02-12T19:45:47.159Z,95.05
2019-02-12T19:48:16.197Z,95.15
2019-02-12T19:51:04.822Z,95.33
2019-02-12T19:56:34.645Z,95.66
2019-02-12T20:02:03.109Z,96.08
2019-02-12T20:07:58.252Z,96.40
2019-02-12T20:13:48.753Z,96.79
2019-02-12T20:16:17.008Z,96.92
2019-02-12T20:19:28.727Z,97.16
2019-02-12T20:24:56.092Z,97.47
2019-02-12T20:27:43.478Z,97.62
2019-02-12T20:33:33.052Z,97.86
2019-02-12T20:36:01.316Z,98.01
2019-02-12T20:38:29.395Z,98.19
2019-02-12T20:43:59.960Z,98.48
2019-02-12T20:46:28.231Z,98.65
2019-02-12T20:48:56.849Z,98.75
2019-02-12T20:51:25.850Z,98.68
2019-02-12T20:53:54.122Z,98.62
2019-02-12T20:56:22.392Z,98.58
2019-02-12T20:59:09.999Z,98.55
2019-02-12T21:01:57.606Z,98.52
2019-02-12T21:04:25.876Z,98.51
2019-02-12T21:12:20.408Z,98.47
2019-02-12T21:14:48.669Z,98.43
2019-02-12T21:17:16.944Z,98.29
2019-02-12T21:19:45.224Z,98.29
2019-02-12T21:22:13.503Z,98.29
2019-02-12T21:24:41.758Z,98.42
2019-02-12T21:27:10.045Z,98.51
2019-02-12T21:29:38.308Z,98.59
2019-02-12T21:32:06.556Z,98.55
2019-02-12T21:34:34.841Z,98.51
2019-02-12T21:37:03.112Z,98.61
2019-02-12T21:39:31.367Z,98.41
2019-02-12T21:41:59.628Z,98.41
2019-02-12T21:44:27.886Z,98.39
2019-02-12T21:46:56.163Z,98.25
2019-02-12T21:49:24.425Z,98.36
2019-02-12T21:51:52.703Z,98.22
2019-02-12T21:54:20.957Z,98.26
2019-02-12T21:56:49.241Z,98.28
2019-02-12T21:59:17.500Z,98.41
2019-02-12T22:01:45.769Z,98.38
2019-02-12T22:04:14.026Z,98.49
2019-02-12T22:06:42.288Z,98.49
2019-02-12T22:09:10.549Z,98.55
2019-02-12T22:11:38.815Z,98.73
2019-02-12T22:14:07.063Z,98.86
2019-02-12T22:16:35.320Z,98.99
2019-02-12T22:19:03.573Z,99.05
2019-02-12T22:21:31.904Z,99.19
2019-02-12T22:24:00.211Z,99.30
2019-02-12T22:26:28.461Z,99.39
2019-02-12T22:28:56.736Z,99.46
2019-02-12T22:31:24.997Z,99.60
2019-02-12T22:33:53.255Z,99.54
2019-02-12T22:36:21.526Z,99.48
2019-02-12T22:38:49.796Z,99.37
2019-02-12T22:41:18.064Z,99.28
2019-02-12T22:43:46.309Z,99.15
2019-02-12T22:46:14.570Z,99.19
2019-02-12T22:48:42.824Z,99.15
2019-02-12T22:51:11.089Z,99.22
2019-02-12T22:53:39.614Z,99.19
2019-02-12T22:56:07.873Z,99.13
2019-02-12T22:58:36.119Z,99.28
2019-02-12T23:01:44.420Z,99.22
2019-02-12T23:04:12.691Z,99.19
2019-02-12T23:06:40.944Z,99.22
2019-02-12T23:09:49.250Z,99.17
2019-02-12T23:12:17.526Z,99.08
2019-02-12T23:14:45.780Z,98.93
2019-02-12T23:17:14.036Z,98.91
2019-02-12T23:19:42.304Z,98.85
2019-02-12T23:22:10.572Z,98.89
2019-02-12T23:24:38.827Z,98.76
2019-02-12T23:27:07.084Z,98.64
2019-02-12T23:29:35.340Z,98.69
2019-02-12T23:32:03.585Z,98.75
2019-02-12T23:34:31.857Z,98.63
2019-02-12T23:37:00.113Z,98.56
2019-02-12T23:39:28.369Z,98.62
2019-02-12T23:41:56.627Z,98.59
2019-02-12T23:44:24.884Z,98.62
2019-02-12T23:46:53.151Z,98.59
2019-02-12T23:49:21.415Z,98.64
2019-02-12T23:51:49.680Z,98.76
2019-02-12T23:54:17.927Z,98.85
2019-02-12T23:56:46.177Z,98.79
2019-02-12T23:59:14.431Z,98.94
